Time;durP1;ratioP1;P1;durP2;ratioP2;P2;SDS_P1;SDS_P2;PMS_P1;PMS_P2;Temp;Humidity;BMP_temperature;BMP_pressure;BME280_temperature;BME280_humidity;BME280_pressure;Samples;Min_cycle;Max_cycle;Signal;HPM_P1;HPM_P2
2022/08/09 18:28:12;;;;;;;4.70;2.93;;;25.60;59.60;;;;;;6137117;23;20481;-77
2022/08/09 18:30:39;;;;;;;3.30;2.40;;;25.60;59.20;;;;;;6135674;23;20426;-80
2022/08/09 18:33:06;;;;;;;3.35;2.42;;;25.60;59.50;;;;;;6152438;23;20488;-77
2022/08/09 18:35:34;;;;;;;2.90;2.43;;;25.50;59.50;;;;;;6154947;23;20198;-80
2022/08/09 18:38:03;;;;;;;2.60;2.40;;;25.50;59.60;;;;;;6181549;23;20448;-82
2022/08/09 18:40:31;;;;;;;4.60;2.47;;;25.50;59.60;;;;;;6183849;23;20447;-74
2022/08/09 18:42:58;;;;;;;4.83;2.30;;;25.50;59.70;;;;;;6182543;23;20731;-78
2022/08/09 18:45:26;;;;;;;3.00;2.60;;;25.50;59.70;;;;;;6183167;23;20440;-77
2022/08/09 18:47:54;;;;;;;2.50;2.30;;;25.40;59.80;;;;;;6182515;23;20530;-78
2022/08/09 18:50:21;;;;;;;3.33;3.00;;;25.40;59.90;;;;;;6183968;23;20721;-81
2022/08/09 18:52:49;;;;;;;3.20;2.80;;;25.40;60.00;;;;;;6184027;23;20444;-80
2022/08/09 18:55:21;;;;;;;4.27;3.10;;;25.40;60.10;;;;;;6183736;23;20429;-78
2022/08/09 18:57:48;;;;;;;5.77;3.00;;;25.40;60.50;;;;;;6184490;23;20432;-79
2022/08/09 19:00:16;;;;;;;4.77;2.60;;;25.40;60.50;;;;;;6180389;23;20429;-79
2022/08/09 19:02:45;;;;;;;2.60;2.40;;;25.30;60.60;;;;;;6184819;23;20437;-75
2022/08/09 19:05:12;;;;;;;2.20;2.10;;;25.30;60.70;;;;;;6183049;23;20437;-75
2022/08/09 19:07:39;;;;;;;3.20;2.27;;;25.30;60.70;;;;;;6184346;23;20515;-79
2022/08/09 19:10:09;;;;;;;5.00;2.60;;;25.30;61.00;;;;;;6182275;23;20749;-79
2022/08/09 19:12:36;;;;;;;2.20;2.00;;;25.20;61.00;;;;;;6184267;23;20933;-79
2022/08/09 19:15:05;;;;;;;3.67;2.57;;;25.20;61.20;;;;;;6183082;23;20451;-79
2022/08/09 19:17:32;;;;;;;2.87;2.67;;;25.20;61.30;;;;;;6182979;23;20441;-80
2022/08/09 19:20:00;;;;;;;3.33;2.73;;;25.10;61.40;;;;;;6181875;23;20448;-78
2022/08/09 19:22:27;;;;;;;2.50;2.30;;;25.10;61.60;;;;;;6182799;23;20445;-79
2022/08/09 19:24:54;;;;;;;4.07;3.10;;;25.00;61.70;;;;;;6182625;23;20437;-77
2022/08/09 19:27:21;;;;;;;2.83;2.63;;;25.00;61.70;;;;;;6206868;23;20872;-78
2022/08/09 19:29:48;;;;;;;2.77;2.57;;;25.00;62.30;;;;;;6216867;23;20439;-78
2022/08/09 19:32:17;;;;;;;4.47;2.70;;;25.00;62.00;;;;;;6211960;23;20443;-79
2022/08/09 19:34:45;;;;;;;4.27;2.30;;;25.00;62.20;;;;;;6213719;23;20494;-79
2022/08/09 19:37:15;;;;;;;4.80;2.90;;;24.90;62.30;;;;;;6214486;23;20440;-77
2022/08/09 19:39:42;;;;;;;3.00;2.70;;;24.80;62.40;;;;;;6213516;23;20436;-80
2022/08/09 19:42:11;;;;;;;3.17;2.90;;;24.80;62.60;;;;;;6214785;23;20458;-78
2022/08/09 19:44:38;;;;;;;2.93;2.33;;;24.80;62.80;;;;;;6199618;23;20436;-74
2022/08/09 19:47:13;;;;;;;2.53;2.33;;;24.80;63.00;;;;;;6201007;23;20439;-75
2022/08/09 19:49:42;;;;;;;3.03;2.73;;;24.80;63.20;;;;;;6214578;23;20451;-74
2022/08/09 19:52:10;;;;;;;3.63;3.10;;;24.70;63.20;;;;;;6214857;23;20508;-75
2022/08/09 19:54:39;;;;;;;4.80;2.50;;;24.70;63.40;;;;;;6216864;23;20443;-79
2022/08/09 19:57:09;;;;;;;3.57;3.13;;;24.70;63.50;;;;;;6199495;23;20467;-78
2022/08/09 19:59:42;;;;;;;2.90;2.70;;;24.60;63.60;;;;;;6213972;23;20461;-77
2022/08/09 20:02:14;;;;;;;3.00;2.70;;;24.50;63.90;;;;;;6212852;23;20619;-78
2022/08/09 20:04:42;;;;;;;3.03;2.73;;;24.50;64.10;;;;;;6209629;23;20763;-79
2022/08/09 20:07:11;;;;;;;2.97;2.43;;;24.50;64.30;;;;;;6212712;23;20439;-78
2022/08/09 20:09:44;;;;;;;3.40;3.10;;;24.40;64.60;;;;;;6213639;23;20497;-76
2022/08/09 20:12:14;;;;;;;3.70;3.30;;;24.30;64.70;;;;;;6213905;23;20432;-76
2022/08/09 20:14:42;;;;;;;2.60;2.40;;;24.30;65.00;;;;;;6215131;23;20441;-77
2022/08/09 20:17:12;;;;;;;2.50;2.30;;;24.20;65.30;;;;;;6197091;23;20443;-76
2022/08/09 20:19:39;;;;;;;3.30;2.70;;;24.20;65.50;;;;;;6213960;23;20431;-75
2022/08/09 20:22:07;;;;;;;6.83;2.90;;;24.20;66.00;;;;;;6199387;23;20840;-75
2022/08/09 20:24:34;;;;;;;3.43;2.50;;;24.10;66.30;;;;;;6216093;23;20463;-74
2022/08/09 20:27:04;;;;;;;3.40;2.60;;;24.10;66.70;;;;;;6198380;23;20752;-75
2022/08/09 20:29:32;;;;;;;3.40;2.90;;;24.00;66.70;;;;;;6183668;23;20429;-77
2022/08/09 20:32:01;;;;;;;4.67;2.50;;;24.00;67.20;;;;;;6186993;23;20467;-76
2022/08/09 20:34:28;;;;;;;3.10;2.73;;;24.00;67.80;;;;;;6214068;23;20440;-78
2022/08/09 20:36:55;;;;;;;3.27;2.20;;;23.90;67.70;;;;;;6196705;23;20443;-79
2022/08/09 20:39:24;;;;;;;3.37;2.93;;;23.90;67.80;;;;;;6198148;23;20432;-80
2022/08/09 20:41:51;;;;;;;2.70;2.50;;;23.90;67.70;;;;;;6214994;23;20436;-79
2022/08/09 20:44:19;;;;;;;5.80;2.67;;;23.90;67.70;;;;;;6244283;23;20446;-79
2022/08/09 20:46:48;;;;;;;4.03;2.60;;;23.80;67.90;;;;;;6244679;23;20452;-79
2022/08/09 20:49:18;;;;;;;3.70;2.30;;;23.80;68.00;;;;;;6244876;23;20750;-79
2022/08/09 20:51:45;;;;;;;2.90;2.53;;;23.70;68.00;;;;;;6232233;23;20493;-74
2022/08/09 20:54:12;;;;;;;2.60;2.40;;;23.70;68.20;;;;;;6245456;23;20435;-77
2022/08/09 20:56:39;;;;;;;3.30;2.53;;;23.70;68.30;;;;;;6247038;23;20790;-79
2022/08/09 20:59:07;;;;;;;3.17;2.90;;;23.60;68.60;;;;;;6228049;23;20463;-76
2022/08/09 21:01:35;;;;;;;4.33;2.43;;;23.70;68.70;;;;;;6244994;23;20906;-79
2022/08/09 21:04:02;;;;;;;5.13;2.87;;;23.70;68.80;;;;;;6244540;23;20434;-78
2022/08/09 21:06:29;;;;;;;4.23;2.70;;;23.60;68.90;;;;;;6242819;23;20613;-78
2022/08/09 21:08:56;;;;;;;4.53;2.63;;;23.50;69.10;;;;;;6244926;23;20435;-75
2022/08/09 21:11:25;;;;;;;3.00;2.63;;;23.50;69.50;;;;;;6243963;23;20427;-76
2022/08/09 21:13:52;;;;;;;4.27;2.10;;;23.50;69.60;;;;;;6245356;23;20477;-75
2022/08/09 21:16:19;;;;;;;2.80;2.60;;;23.40;69.70;;;;;;6243938;23;20527;-74
2022/08/09 21:18:48;;;;;;;3.40;2.53;;;23.40;70.00;;;;;;6244069;23;20442;-76
2022/08/09 21:21:15;;;;;;;3.10;2.63;;;23.30;70.40;;;;;;6243064;23;20434;-75
2022/08/09 21:23:45;;;;;;;3.43;2.47;;;23.20;70.50;;;;;;6244105;23;20458;-80
2022/08/09 21:26:11;;;;;;;3.13;2.47;;;23.20;70.70;;;;;;6243853;23;20439;-76
2022/08/09 21:28:39;;;;;;;2.77;2.57;;;23.20;70.80;;;;;;6228052;23;20489;-75
2022/08/09 21:31:11;;;;;;;3.10;2.33;;;23.20;71.00;;;;;;6243275;23;20431;-77
2022/08/09 21:33:38;;;;;;;2.80;2.47;;;23.10;71.20;;;;;;6245254;23;20465;-75
2022/08/09 21:36:07;;;;;;;2.50;2.30;;;23.10;71.40;;;;;;6243827;23;20439;-78
2022/08/09 21:38:34;;;;;;;2.67;2.13;;;23.10;71.70;;;;;;6243360;23;20427;-76
2022/08/09 21:41:02;;;;;;;4.07;3.13;;;23.10;71.70;;;;;;6244991;23;20555;-78
2022/08/09 21:43:29;;;;;;;2.27;2.03;;;23.00;72.00;;;;;;6241861;23;20489;-75
2022/08/09 21:45:56;;;;;;;2.50;2.30;;;23.00;72.30;;;;;;6243447;23;20504;-76
2022/08/09 21:48:54;;;;;;;3.17;2.13;;;22.90;72.30;;;;;;6245244;23;20542;-80
2022/08/09 21:51:26;;;;;;;2.90;2.30;;;22.90;72.30;;;;;;6244352;23;20435;-76
2022/08/09 21:53:54;;;;;;;2.80;2.23;;;22.90;72.60;;;;;;6241660;23;20435;-75
2022/08/09 21:56:22;;;;;;;2.70;2.10;;;22.90;72.80;;;;;;6254636;22;20838;-82
2022/08/09 21:58:49;;;;;;;3.30;2.50;;;22.80;73.10;;;;;;6273794;22;20426;-81
2022/08/09 22:01:16;;;;;;;3.53;3.00;;;22.80;73.20;;;;;;6269441;22;20513;-82
2022/08/09 22:03:43;;;;;;;2.83;2.40;;;22.80;73.40;;;;;;6274676;22;20434;-79
2022/08/09 22:06:10;;;;;;;3.20;2.53;;;22.70;73.60;;;;;;6273053;22;20434;-80
2022/08/09 22:08:38;;;;;;;6.47;2.90;;;22.70;73.60;;;;;;6276454;22;20464;-80
2022/08/09 22:11:05;;;;;;;3.47;2.20;;;22.70;73.80;;;;;;6275092;22;20445;-76
2022/08/09 22:13:32;;;;;;;3.43;2.60;;;22.70;74.10;;;;;;6275300;22;20468;-75
2022/08/09 22:16:01;;;;;;;5.17;3.20;;;22.70;74.20;;;;;;6274055;22;20434;-80
2022/08/09 22:18:28;;;;;;;2.60;2.33;;;22.60;74.40;;;;;;6275096;22;20434;-76
2022/08/09 22:20:55;;;;;;;3.20;2.90;;;22.60;74.60;;;;;;6275082;22;20453;-81
2022/08/09 22:23:22;;;;;;;3.40;2.27;;;22.60;74.70;;;;;;6275457;22;20944;-75
2022/08/09 22:25:51;;;;;;;6.70;3.37;;;22.60;75.20;;;;;;6275526;22;20541;-76
2022/08/09 22:28:18;;;;;;;3.17;2.90;;;22.60;75.30;;;;;;6274945;22;20727;-76
2022/08/09 22:30:46;;;;;;;3.30;3.10;;;22.60;75.40;;;;;;6274937;22;20434;-76
2022/08/09 22:33:15;;;;;;;7.80;3.47;;;22.60;75.70;;;;;;6273927;22;20426;-74
2022/08/09 22:35:43;;;;;;;4.20;3.47;;;22.50;75.70;;;;;;6273347;22;20469;-75
2022/08/09 22:38:10;;;;;;;4.10;3.20;;;22.50;75.80;;;;;;6275501;22;20430;-77
2022/08/09 22:40:38;;;;;;;2.57;2.37;;;22.50;76.20;;;;;;6274085;22;20434;-76
2022/08/09 22:43:06;;;;;;;3.63;3.17;;;22.50;76.30;;;;;;6275345;22;20937;-76
2022/08/09 22:45:34;;;;;;;3.33;3.03;;;22.50;76.50;;;;;;6274693;22;20429;-75
2022/08/09 22:48:01;;;;;;;2.80;2.60;;;22.50;77.00;;;;;;6272932;22;20953;-76
2022/08/09 22:50:28;;;;;;;2.50;2.30;;;22.40;77.20;;;;;;6273127;22;21022;-75
2022/08/09 22:52:55;;;;;;;5.20;2.60;;;22.40;77.50;;;;;;6273378;22;20433;-74
2022/08/09 22:55:22;;;;;;;3.00;2.80;;;22.40;77.80;;;;;;6273005;22;20433;-74
2022/08/09 22:57:49;;;;;;;3.30;2.93;;;22.30;77.90;;;;;;6273400;22;20734;-75
2022/08/09 23:00:18;;;;;;;3.73;3.40;;;22.30;78.20;;;;;;6272507;22;20461;-79
2022/08/09 23:02:45;;;;;;;3.40;3.10;;;22.30;78.30;;;;;;6251530;22;20919;-75
2022/08/09 23:05:12;;;;;;;3.83;3.20;;;22.30;78.50;;;;;;6260189;22;20430;-76
2022/08/09 23:10:23;;;;;;;2.97;2.70;;;22.20;79.00;;;;;;6244099;22;20456;-76
2022/08/09 23:12:50;;;;;;;3.40;2.70;;;22.10;79.20;;;;;;6268340;22;20437;-76
2022/08/09 23:15:18;;;;;;;2.90;2.60;;;22.10;79.40;;;;;;6275763;22;20489;-76
2022/08/09 23:17:45;;;;;;;4.80;3.30;;;22.00;79.60;;;;;;6276958;22;20429;-74
2022/08/09 23:20:12;;;;;;;3.10;2.47;;;22.00;79.80;;;;;;6276772;22;20430;-77
2022/08/09 23:22:39;;;;;;;2.83;2.63;;;22.00;80.00;;;;;;6277757;22;20699;-75
2022/08/09 23:25:08;;;;;;;3.73;3.17;;;22.00;80.30;;;;;;6276793;22;20429;-76
2022/08/09 23:27:34;;;;;;;4.00;2.93;;;21.90;80.40;;;;;;6276121;22;20429;-76
2022/08/09 23:30:01;;;;;;;4.80;3.47;;;21.90;80.60;;;;;;6276449;22;20789;-76
2022/08/09 23:32:30;;;;;;;3.47;3.20;;;21.90;80.90;;;;;;6276276;22;20927;-76
2022/08/09 23:34:57;;;;;;;3.47;3.17;;;21.80;81.00;;;;;;6277715;22;20457;-75
2022/08/09 23:37:24;;;;;;;3.30;3.00;;;21.80;81.10;;;;;;6278734;22;20932;-76
2022/08/09 23:39:51;;;;;;;3.20;2.90;;;21.80;81.40;;;;;;6278775;22;20430;-76
2022/08/09 23:42:18;;;;;;;4.47;3.20;;;21.80;81.50;;;;;;6278326;22;20905;-76
2022/08/09 23:44:46;;;;;;;3.70;3.40;;;21.70;81.60;;;;;;6291809;22;20425;-80
2022/08/09 23:47:13;;;;;;;3.60;3.30;;;21.70;81.90;;;;;;6295217;22;20448;-74
2022/08/09 23:49:41;;;;;;;4.10;3.80;;;21.70;82.00;;;;;;6291968;22;20457;-75
2022/08/09 23:52:14;;;;;;;5.57;4.27;;;21.60;82.10;;;;;;6300529;22;20412;-79
2022/08/09 23:54:41;;;;;;;5.60;3.63;;;21.60;82.40;;;;;;6295898;22;20433;-78
2022/08/09 23:57:08;;;;;;;4.60;4.20;;;21.60;82.50;;;;;;6297405;22;20440;-79
